Huntington, IN

11:32 AM EST on February 09, 2016 (GMT -0500)
North Huntington County | | Change Station
CLOSE
Current Station
Personal Weather Station
Location: Huntington, IN
Elevation: 817 ft
Nearby Weather Stations

Elev 817 ft 40.93 °N, 85.55 °W | Updated 2 minutes ago

Overcast
Overcast
23.4 °F
Feels Like 18 °F
N
4.0
Wind Variable Wind from WNW
Gusts 6.0 mph

Today
High -- | Low -- °F
--% Chance of Precip.
Yesterday
High -- | Low -- °F
Precip. -- in
Pressure 29.70 in
Visibility 2.0 miles
Clouds Mostly Cloudy 1200 ft
Overcast 1800 ft
Windchill 18 °F
Dew Point 20 °F
Humidity 88%
Rainfall 0.00 in
Snow Depth Not available.
7:44 AM 6:08 PM
New Moon, 2% visible
SPECI KFWA 091612Z 27015KT 2SM -SN BKN012 OVC018 M03/M07 A2970 RMK AO2 SFC VIS 2 1/2 P0000 T10281067
Pressure 29.70 in
Visibility 2.0 miles
Clouds Mostly Cloudy 1200 ft
Overcast 1800 ft
Windchill 18 °F
Dew Point 20 °F
Humidity 88%
Rainfall 0.00 in
Snow Depth Not available.
7:44 AM 6:08 PM
New Moon, 2% visible
SPECI KFWA 091612Z 27015KT 2SM -SN BKN012 OVC018 M03/M07 A2970 RMK AO2 SFC VIS 2 1/2 P0000 T10281067

10-Day Weather Forecast

Almanac

Astronomy

Feb. 09, 2016 Rise Set
Actual Time
Civil Twilight
Nautical Twilight
Astronomical Twilight
Moon
Length of Visible Light
Length of Day
Tomorrow will be .
, % of the Moon is Illuminated

Today's Extremes

State Highs State Lows

Community

WunderPhotos

Upload Photos

1,891,630 photos uploaded!

WunderBlog® & News

Nearby

Air Quality

  Air Quality AQ Index Pollutant
Not available.

Snow Depth

Station Depth Elevation

Earthquake Activity

City Distance Mag. Time & Date
Minimum magnitude displayed is 2.5.

Coastal Water Temperatures

Place Temperature

Stations

Nearby Weather Stations

Station Location Temp. Windchill Dew Point Humidity Wind Precip. Elev Updated Type
                   

Watches & Warnings

There are currently no watches in effect.